Time;durP1;ratioP1;P1;durP2;ratioP2;P2;SDS_P1;SDS_P2;PMS_P1;PMS_P2;Temp;Humidity;BMP_temperature;BMP_pressure;BME280_temperature;BME280_humidity;BME280_pressure;Samples;Min_cycle;Max_cycle;Signal;HPM_P1;HPM_P2
2024/04/07 00:00:19;;;;;;;17.70;10.10;;;;;;;13.51;69.72;100373.23;102782;1261;99224;-71
2024/04/07 00:03:40;;;;;;;12.70;9.30;;;;;;;13.46;69.77;100384.27;102849;1262;115478;-72
2024/04/07 00:06:41;;;;;;;19.30;11.90;;;;;;;13.42;69.96;100383.72;102735;1263;139615;-71
2024/04/07 00:09:42;;;;;;;17.00;11.30;;;;;;;13.37;70.02;100385.17;102789;1267;99063;-73
2024/04/07 00:12:43;;;;;;;15.30;10.60;;;;;;;13.30;70.02;100387.02;102643;1262;139902;-72
2024/04/07 00:15:43;;;;;;;18.00;11.70;;;;;;;13.24;70.28;100386.71;102071;1262;1002996;-72
2024/04/07 00:18:45;;;;;;;20.40;11.40;;;;;;;13.20;70.37;100390.39;102714;1262;139915;-72
2024/04/07 00:21:46;;;;;;;16.50;10.40;;;;;;;13.17;70.58;100391.71;103062;1262;107741;-72
2024/04/07 00:24:47;;;;;;;17.00;10.90;;;;;;;13.14;70.72;100391.66;102706;1262;140043;-72
2024/04/07 00:27:47;;;;;;;20.60;11.90;;;;;;;13.12;70.94;100394.02;102744;1266;108003;-72
2024/04/07 00:30:51;;;;;;;19.30;12.30;;;;;;;13.08;71.08;100390.50;102964;1262;140355;-72
2024/04/07 00:33:53;;;;;;;19.00;12.00;;;;;;;13.02;71.40;100384.45;102813;1262;112538;-72
2024/04/07 00:36:54;;;;;;;23.10;13.70;;;;;;;12.98;71.36;100393.69;102736;1262;139941;-71
2024/04/07 00:39:55;;;;;;;19.80;12.40;;;;;;;12.92;71.52;100398.64;102839;1262;99805;-71
2024/04/07 00:42:56;;;;;;;20.60;13.50;;;;;;;12.87;71.73;100400.23;102700;1262;139393;-71
2024/04/07 00:45:57;;;;;;;21.70;13.90;;;;;;;12.81;71.87;100402.23;102066;1262;1003849;-71
2024/04/07 00:48:58;;;;;;;19.80;13.10;;;;;;;12.74;72.13;100397.10;102853;1262;139869;-71
2024/04/07 00:52:00;;;;;;;18.10;12.40;;;;;;;12.67;72.27;100395.06;102848;1266;107290;-71
2024/04/07 00:55:01;;;;;;;17.10;11.80;;;;;;;12.62;72.35;100389.86;102734;1262;139750;-71
2024/04/07 00:58:02;;;;;;;19.90;12.60;;;;;;;12.57;72.73;100384.46;102773;1262;107947;-71
2024/04/07 01:01:05;;;;;;;17.70;12.00;;;;;;;12.50;72.80;100388.56;101983;1262;1003052;-71
2024/04/07 01:04:06;;;;;;;18.50;10.80;;;;;;;12.43;73.02;100398.08;102823;1262;112579;-70
2024/04/07 01:07:07;;;;;;;18.00;11.80;;;;;;;12.38;73.06;100399.33;101929;1262;1003052;-70
2024/04/07 01:10:09;;;;;;;17.70;11.10;;;;;;;12.34;73.25;100405.39;102745;1262;99188;-71
2024/04/07 01:13:10;;;;;;;17.40;11.10;;;;;;;12.31;73.49;100406.91;102644;1263;139862;-71
2024/04/07 01:16:10;;;;;;;17.10;11.60;;;;;;;12.29;73.64;100406.30;102810;1267;99913;-71
2024/04/07 01:19:11;;;;;;;18.20;11.80;;;;;;;12.27;73.77;100408.27;102681;1263;139173;-72
2024/04/07 01:22:13;;;;;;;18.90;11.20;;;;;;;12.24;74.07;100407.85;102750;1264;106732;-72
2024/04/07 01:25:13;;;;;;;20.30;11.90;;;;;;;12.21;74.01;100402.91;102603;1267;139329;-71
2024/04/07 01:28:15;;;;;;;20.00;12.30;;;;;;;12.19;74.21;100399.14;102707;1264;107424;-72
2024/04/07 01:31:16;;;;;;;16.20;11.40;;;;;;;12.17;74.36;100410.39;102674;1264;139954;-70
2024/04/07 01:34:17;;;;;;;16.40;11.90;;;;;;;12.16;74.48;100420.18;102805;1264;111879;-70
2024/04/07 01:37:18;;;;;;;16.70;11.40;;;;;;;12.15;74.47;100421.60;102659;1262;140407;-69
2024/04/07 01:40:20;;;;;;;18.40;11.60;;;;;;;12.13;74.72;100425.85;102836;1263;99158;-71
2024/04/07 01:43:20;;;;;;;17.80;11.90;;;;;;;12.12;74.91;100423.80;102867;1264;138253;-71
2024/04/07 01:46:22;;;;;;;18.70;11.60;;;;;;;12.10;75.01;100430.68;103057;1262;99215;-70
2024/04/07 01:49:23;;;;;;;18.00;10.90;;;;;;;12.08;74.95;100432.13;102028;1262;1003299;-70
2024/04/07 01:52:24;;;;;;;20.80;12.20;;;;;;;12.07;75.11;100430.42;102726;1266;108632;-71
2024/04/07 01:55:25;;;;;;;18.30;12.20;;;;;;;12.06;75.13;100430.98;102677;1264;139584;-70
2024/04/07 01:58:26;;;;;;;20.60;13.00;;;;;;;12.05;75.40;100425.98;102889;1263;108808;-70
2024/04/07 02:02:01;;;;;;;17.40;11.70;;;;;;;12.03;75.48;100422.55;102286;1255;1003020;31
2024/04/07 02:05:02;;;;;;;19.00;11.40;;;;;;;11.98;75.70;100422.35;102724;1264;112647;-71
2024/04/07 02:08:03;;;;;;;17.70;10.70;;;;;;;11.97;75.80;100431.83;102557;1264;139376;-70
2024/04/07 02:11:04;;;;;;;17.50;10.80;;;;;;;11.95;75.83;100428.40;102684;1267;99208;-71
2024/04/07 02:14:04;;;;;;;23.10;10.90;;;;;;;11.93;76.01;100421.34;102561;1264;140369;-72
2024/04/07 02:17:06;;;;;;;19.50;11.40;;;;;;;11.91;76.12;100421.77;102711;1263;99195;-71
2024/04/07 02:20:08;;;;;;;18.80;10.40;;;;;;;11.89;76.26;100420.61;102906;1264;139159;-72
2024/04/07 02:23:09;;;;;;;17.70;10.50;;;;;;;11.87;76.43;100419.98;102595;1265;107646;-72
2024/04/07 02:26:10;;;;;;;16.40;11.20;;;;;;;11.86;76.48;100421.79;102615;1264;139382;-70
2024/04/07 02:29:11;;;;;;;16.70;11.80;;;;;;;11.84;76.57;100418.86;102727;1264;108295;-70
2024/04/07 02:32:13;;;;;;;19.00;12.60;;;;;;;11.80;76.58;100411.86;102741;1264;139346;-71
2024/04/07 02:35:14;;;;;;;18.50;11.20;;;;;;;11.75;76.70;100404.69;102636;1268;112698;-72
2024/04/07 02:38:15;;;;;;;15.60;10.70;;;;;;;11.70;76.93;100399.80;102542;1264;139411;-72
2024/04/07 02:41:16;;;;;;;17.50;11.10;;;;;;;11.66;77.37;100397.14;102765;1264;99737;-72
2024/04/07 02:44:17;;;;;;;18.10;11.90;;;;;;;11.62;77.56;100395.38;102580;1263;139253;-70
2024/04/07 02:50:35;;;;;;;;;;;;;;;11.53;77.82;100389.60;102640;1264;140374;-71
2024/04/07 02:53:34;;;;;;;;;;;;;;;11.47;78.14;100385.22;102755;1265;106965;-71
2024/04/07 02:56:33;;;;;;;;;;;;;;;11.41;78.45;100388.76;102651;1264;125969;-71
2024/04/07 02:59:32;;;;;;;;;;;;;;;11.38;78.52;100400.54;102760;1265;107970;-70
2024/04/07 03:02:34;;;;;;;18.60;11.40;;;;;;;11.33;78.66;100402.62;102747;1265;126322;-71
2024/04/07 03:05:35;;;;;;;16.70;11.20;;;;;;;11.32;78.71;100405.10;102737;1265;112754;-72
2024/04/07 03:08:36;;;;;;;17.80;12.10;;;;;;;11.30;78.61;100405.84;102587;1264;139653;-72
2024/04/07 03:11:37;;;;;;;22.20;12.10;;;;;;;11.28;78.83;100402.92;101936;1267;1002935;-71
2024/04/07 03:14:38;;;;;;;18.70;12.00;;;;;;;11.29;78.98;100400.98;102690;1262;140782;-71
2024/04/07 03:17:39;;;;;;;17.20;11.50;;;;;;;11.29;79.11;100410.58;102675;1267;99214;-72
2024/04/07 03:20:40;;;;;;;22.50;12.50;;;;;;;11.27;79.13;100411.16;102902;1267;138538;-71
2024/04/07 03:23:41;;;;;;;16.80;11.50;;;;;;;11.25;79.41;100410.71;102967;1265;107182;-71
2024/04/07 03:26:42;;;;;;;17.60;12.10;;;;;;;11.25;79.20;100421.33;102009;1263;1002855;-72
2024/04/07 03:29:43;;;;;;;17.70;13.00;;;;;;;11.23;79.28;100429.23;102713;1264;108584;-72
2024/04/07 03:32:44;;;;;;;20.50;12.80;;;;;;;11.21;79.39;100429.65;102648;1266;139702;-72
2024/04/07 03:35:45;;;;;;;17.20;12.40;;;;;;;11.18;79.49;100427.83;102726;1265;112561;-70
2024/04/07 03:38:46;;;;;;;20.90;13.00;;;;;;;11.15;79.47;100441.32;102765;1265;108485;-71
2024/04/07 03:41:47;;;;;;;20.50;14.70;;;;;;;11.14;79.74;100449.02;102831;1264;99189;-71
2024/04/07 03:44:48;;;;;;;20.80;14.30;;;;;;;11.12;79.76;100436.35;102845;1264;108933;-71
2024/04/07 03:47:49;;;;;;;18.50;13.50;;;;;;;11.09;79.81;100446.73;102707;1265;99343;-71
2024/04/07 03:50:51;;;;;;;20.70;14.50;;;;;;;11.05;79.83;100449.12;102815;1263;112376;-71
2024/04/07 03:53:52;;;;;;;22.00;14.40;;;;;;;11.03;80.32;100441.00;102741;1265;106567;-72
2024/04/07 03:56:53;;;;;;;23.70;15.40;;;;;;;11.01;80.37;100438.64;102745;1263;99284;-70
2024/04/07 03:59:54;;;;;;;22.00;14.40;;;;;;;10.99;80.47;100443.22;102775;1265;107134;-71
2024/04/07 04:03:03;;;;;;;19.90;14.20;;;;;;;10.97;80.64;100433.70;102518;1265;99237;-71
2024/04/07 04:06:07;;;;;;;22.40;14.70;;;;;;;10.96;80.59;100434.96;102764;1265;113026;-70
2024/04/07 04:09:10;;;;;;;20.90;15.30;;;;;;;10.96;80.75;100444.19;102692;1265;107569;-73
2024/04/07 04:12:11;;;;;;;22.00;15.70;;;;;;;10.96;80.98;100435.84;102956;1267;98662;-70
2024/04/07 04:15:13;;;;;;;21.10;15.00;;;;;;;10.96;81.09;100437.58;102940;1267;105852;-70
2024/04/07 04:18:14;;;;;;;22.60;16.10;;;;;;;10.97;81.13;100448.50;102806;1264;99464;-71
2024/04/07 04:21:17;;;;;;;24.40;16.00;;;;;;;11.00;81.16;100432.94;102939;1265;112869;-71
2024/04/07 04:24:18;;;;;;;23.70;15.50;;;;;;;11.08;81.18;100430.05;103193;1264;106613;-71
2024/04/07 04:27:19;;;;;;;21.60;15.70;;;;;;;11.36;80.75;100447.44;102798;1265;99720;-69
2024/04/07 04:30:24;;;;;;;25.90;16.40;;;;;;;11.62;79.95;100444.48;101972;1267;1003162;-71
2024/04/07 04:33:25;;;;;;;24.60;15.10;;;;;;;11.82;79.10;100437.03;102759;1265;99156;-72
2024/04/07 04:36:26;;;;;;;28.40;15.70;;;;;;;12.00;78.57;100446.36;102656;1265;112463;-71
2024/04/07 04:39:27;;;;;;;22.10;16.00;;;;;;;12.21;77.99;100461.83;102696;1265;108666;-71
2024/04/07 04:42:28;;;;;;;20.20;15.20;;;;;;;12.57;77.24;100457.71;102764;1265;99704;-71
2024/04/07 04:45:29;;;;;;;19.70;15.30;;;;;;;12.85;76.05;100444.27;102699;1265;107853;-72
2024/04/07 04:48:30;;;;;;;23.60;16.30;;;;;;;12.98;75.42;100457.23;102700;1267;99186;-72
2024/04/07 04:51:31;;;;;;;20.90;15.90;;;;;;;13.06;74.48;100456.54;102784;1263;113173;-70
2024/04/07 04:54:32;;;;;;;24.20;16.10;;;;;;;13.10;74.07;100450.11;102665;1262;107418;-71
2024/04/07 04:57:33;;;;;;;22.90;15.40;;;;;;;13.33;73.69;100459.91;103029;1264;99949;-71
2024/04/07 05:00:35;;;;;;;21.30;15.60;;;;;;;13.73;72.68;100457.38;102674;1264;108637;-72
2024/04/07 05:03:36;;;;;;;21.90;15.60;;;;;;;14.23;71.44;100459.09;102693;1264;99229;-71
2024/04/07 05:06:37;;;;;;;22.00;15.60;;;;;;;14.64;70.24;100457.45;103704;1264;112087;-71
2024/04/07 05:09:38;;;;;;;22.20;15.60;;;;;;;15.06;69.11;100449.90;102702;1265;108415;-71
2024/04/07 05:12:39;;;;;;;20.90;14.70;;;;;;;15.20;67.89;100440.98;102735;1262;99720;-72
2024/04/07 05:15:40;;;;;;;19.20;14.20;;;;;;;15.44;67.35;100441.73;102730;1265;108805;-71
2024/04/07 05:18:41;;;;;;;18.70;13.50;;;;;;;16.24;66.48;100442.95;102718;1262;99196;-71
2024/04/07 05:21:44;;;;;;;19.90;13.30;;;;;;;17.21;64.57;100448.36;95217;1267;10204906;-71
2024/04/07 05:24:45;;;;;;;16.40;12.60;;;;;;;17.92;62.36;100446.21;101996;1264;1002882;-71
2024/04/07 05:27:46;;;;;;;18.80;13.10;;;;;;;18.00;60.17;100451.04;102810;1265;112767;-71
2024/04/07 05:30:47;;;;;;;15.00;11.90;;;;;;;17.73;58.94;100458.27;102873;1262;107681;-71
2024/04/07 05:33:48;;;;;;;17.70;12.80;;;;;;;17.39;58.72;100460.20;102828;1264;99557;-71
2024/04/07 05:36:49;;;;;;;16.80;12.10;;;;;;;17.22;59.21;100463.30;103467;1262;107820;-71
2024/04/07 05:39:56;;;;;;;18.00;12.70;;;;;;;17.74;59.25;100466.98;102892;1262;100921;-71
2024/04/07 05:42:58;;;;;;;19.10;12.50;;;;;;;19.06;58.23;100475.83;103274;1264;112231;-71
2024/04/07 05:46:02;;;;;;;17.00;11.40;;;;;;;20.58;55.47;100470.43;102772;1263;107865;-71
2024/04/07 05:49:04;;;;;;;16.70;10.50;;;;;;;22.13;53.75;100468.30;102856;1264;99058;-71
2024/04/07 05:52:05;;;;;;;17.20;10.90;;;;;;;23.51;50.00;100460.47;102761;1264;109583;-71
2024/04/07 05:55:08;;;;;;;14.50;11.10;;;;;;;24.52;47.14;100455.67;103041;1264;99138;-71
2024/04/07 05:58:09;;;;;;;15.10;10.00;;;;;;;25.19;45.03;100457.68;102759;1265;113025;-70
2024/04/07 06:01:10;;;;;;;13.50;9.70;;;;;;;25.86;44.33;100451.63;102717;1264;108061;-71
2024/04/07 06:04:11;;;;;;;12.70;9.70;;;;;;;26.43;41.97;100443.16;102862;1265;99305;-71
2024/04/07 06:07:12;;;;;;;10.50;8.80;;;;;;;26.83;41.28;100437.02;102713;1267;107476;-71
2024/04/07 06:10:14;;;;;;;14.10;8.90;;;;;;;27.51;40.64;100433.88;102670;1264;99189;-71
2024/04/07 06:13:15;;;;;;;14.30;8.50;;;;;;;28.14;39.54;100424.58;102984;1265;112223;-71
2024/04/07 06:16:16;;;;;;;12.20;8.50;;;;;;;28.65;37.78;100417.15;102924;1264;107962;-73
2024/04/07 06:19:17;;;;;;;11.20;8.40;;;;;;;28.87;36.52;100420.52;102715;1264;99071;-78
2024/04/07 06:22:18;;;;;;;12.40;8.20;;;;;;;28.65;35.50;100421.65;102758;1264;108584;-72
2024/04/07 06:25:19;;;;;;;11.40;8.10;;;;;;;28.63;35.84;100424.23;102924;1264;99347;-72
2024/04/07 06:28:20;;;;;;;11.20;7.30;;;;;;;28.35;35.17;100435.55;102762;1265;113950;-72
2024/04/07 06:31:21;;;;;;;12.30;7.80;;;;;;;27.79;34.75;100439.80;102725;1262;108410;-71
2024/04/07 06:34:22;;;;;;;10.70;7.50;;;;;;;27.56;34.98;100444.80;102790;1262;99175;-74
2024/04/07 06:37:23;;;;;;;9.10;7.20;;;;;;;27.34;35.07;100443.13;102695;1265;107410;-72
2024/04/07 06:40:24;;;;;;;9.80;7.00;;;;;;;27.00;34.49;100442.00;102838;1265;99705;-75
2024/04/07 06:43:25;;;;;;;10.70;7.40;;;;;;;26.69;35.48;100431.56;102746;1264;113231;-72
2024/04/07 06:46:26;;;;;;;11.30;7.50;;;;;;;26.87;35.41;100427.73;102693;1263;107927;-71
2024/04/07 06:49:27;;;;;;;12.10;7.00;;;;;;;26.85;34.31;100434.30;102776;1262;99060;-72
2024/04/07 06:52:28;;;;;;;10.60;6.90;;;;;;;27.02;35.13;100429.09;102733;1267;107422;-72
2024/04/07 06:55:29;;;;;;;12.40;6.50;;;;;;;27.18;33.91;100436.14;102788;1265;99212;-72
2024/04/07 06:58:31;;;;;;;10.70;5.90;;;;;;;27.07;34.21;100437.20;102854;1264;112395;-72
2024/04/07 07:01:32;;;;;;;9.00;5.70;;;;;;;27.11;33.93;100438.02;102839;1265;108122;-71
2024/04/07 07:04:33;;;;;;;10.00;6.40;;;;;;;27.03;33.88;100444.54;102970;1267;99222;-72
2024/04/07 07:07:34;;;;;;;11.70;6.80;;;;;;;26.95;34.00;100437.81;102688;1267;108941;-72
2024/04/07 07:10:35;;;;;;;10.00;6.60;;;;;;;26.98;34.13;100449.98;102694;1267;99164;-73
2024/04/07 07:13:42;;;;;;;10.20;6.70;;;;;;;27.04;34.37;100443.56;102635;1267;112833;-73
2024/04/07 07:16:43;;;;;;;11.70;6.70;;;;;;;27.31;34.01;100437.80;102726;1268;106494;-71
2024/04/07 07:19:44;;;;;;;8.70;6.20;;;;;;;27.92;34.51;100427.27;102705;1267;99172;-71
2024/04/07 07:22:45;;;;;;;10.70;6.20;;;;;;;28.25;33.20;100423.68;102644;1267;108313;-65
2024/04/07 07:25:46;;;;;;;9.20;6.10;;;;;;;27.74;32.68;100432.98;102901;1266;99288;-66
2024/04/07 07:28:47;;;;;;;11.80;6.40;;;;;;;27.22;33.10;100442.33;102703;1270;112355;-67
2024/04/07 07:31:48;;;;;;;11.20;6.50;;;;;;;27.00;34.11;100441.61;102547;1267;108348;-66
2024/04/07 07:34:49;;;;;;;10.30;6.90;;;;;;;27.08;34.71;100443.86;102797;1268;99175;-67
2024/04/07 07:37:50;;;;;;;9.10;6.20;;;;;;;26.99;33.76;100448.44;102974;1267;108115;-67
2024/04/07 07:40:51;;;;;;;10.90;5.60;;;;;;;26.49;34.58;100445.31;103161;1265;98409;-68
2024/04/07 07:43:52;;;;;;;7.90;5.30;;;;;;;26.07;35.38;100452.52;103996;1267;112633;-67
2024/04/07 07:46:56;;;;;;;7.20;4.30;;;;;;;25.64;35.33;100463.27;103914;1267;107267;-79
2024/04/07 07:49:57;;;;;;;7.30;4.50;;;;;;;25.23;35.45;100466.40;103243;1268;99177;-74
2024/04/07 07:52:58;;;;;;;7.00;4.50;;;;;;;25.20;35.51;100465.83;102421;1267;107475;-75
2024/04/07 07:55:59;;;;;;;9.10;4.70;;;;;;;24.87;36.51;100469.09;102633;1267;99180;-77
2024/04/07 07:59:00;;;;;;;8.00;4.20;;;;;;;24.62;36.74;100468.80;102509;1267;110682;-72
2024/04/07 08:02:01;;;;;;;5.00;3.70;;;;;;;24.41;37.64;100476.17;102581;1268;107673;-73
2024/04/07 08:05:02;;;;;;;7.00;4.30;;;;;;;24.22;37.50;100474.23;102865;1265;99176;-71
2024/04/07 08:08:03;;;;;;;6.70;4.30;;;;;;;24.10;37.99;100477.50;102980;1264;108184;-72
2024/04/07 08:11:04;;;;;;;10.30;4.50;;;;;;;24.28;37.72;100477.84;103278;1263;99196;-74
2024/04/07 08:14:05;;;;;;;9.00;4.00;;;;;;;24.77;37.24;100478.52;104035;1264;112258;-75
2024/04/07 08:17:06;;;;;;;8.20;3.80;;;;;;;25.29;36.39;100488.50;103991;1264;108966;-74
2024/04/07 08:20:07;;;;;;;5.30;3.50;;;;;;;25.61;35.86;100498.54;104094;1265;97061;-72
2024/04/07 08:23:08;;;;;;;6.50;3.30;;;;;;;26.08;35.85;100488.34;103957;1264;108901;-73
2024/04/07 08:26:12;;;;;;;6.10;3.40;;;;;;;26.56;34.75;100491.95;104021;1264;98328;-72
2024/04/07 08:29:14;;;;;;;9.60;3.40;;;;;;;26.38;34.50;100492.53;102952;1264;114601;-73
2024/04/07 08:32:15;;;;;;;7.60;3.70;;;;;;;26.07;35.20;100485.95;102965;1264;107943;-73
2024/04/07 08:35:16;;;;;;;6.60;3.20;;;;;;;26.26;35.23;100483.34;102777;1264;99153;-72
2024/04/07 08:38:17;;;;;;;5.10;2.90;;;;;;;26.77;35.37;100477.72;103101;1265;107433;-72
2024/04/07 08:41:19;;;;;;;5.00;3.00;;;;;;;27.36;33.98;100484.13;103162;1264;99106;-73
2024/04/07 08:44:20;;;;;;;6.10;3.20;;;;;;;27.37;33.78;100488.48;102821;1267;111908;-72
2024/04/07 08:47:24;;;;;;;4.70;2.80;;;;;;;27.10;33.45;100488.30;102818;1268;106975;-72
2024/04/07 08:50:25;;;;;;;7.50;2.70;;;;;;;26.88;33.86;100475.91;102942;1267;99171;-72
2024/04/07 08:53:27;;;;;;;6.40;3.20;;;;;;;26.95;34.55;100469.25;102803;1267;108244;-72
2024/04/07 08:56:28;;;;;;;8.00;3.00;;;;;;;26.98;34.37;100469.59;102771;1268;99198;-72
2024/04/07 08:59:33;;;;;;;6.20;2.60;;;;;;;26.89;34.34;100470.20;102938;1264;117125;-73
2024/04/07 09:02:37;;;;;;;5.70;3.10;;;;;;;26.71;34.48;100468.48;102807;1264;107616;-73
2024/04/07 09:05:38;;;;;;;6.60;2.70;;;;;;;26.56;34.43;100454.61;102877;1265;99280;-74
2024/04/07 09:08:39;;;;;;;4.10;2.60;;;;;;;26.36;34.46;100450.66;102812;1266;107299;-74
2024/04/07 09:11:40;;;;;;;5.90;2.80;;;;;;;26.24;34.84;100448.36;102797;1264;99179;-74
2024/04/07 09:14:45;;;;;;;5.10;2.80;;;;;;;26.12;34.91;100439.32;104056;1264;113174;-72
2024/04/07 09:17:45;;;;;;;4.40;2.60;;;;;;;25.95;34.94;100440.79;104051;1262;108884;-72
2024/04/07 09:20:46;;;;;;;4.80;3.00;;;;;;;25.82;35.61;100432.39;104062;1264;97015;-73
2024/04/07 09:23:49;;;;;;;6.50;2.90;;;;;;;25.74;35.62;100429.58;104045;1264;108726;-73
2024/04/07 09:26:50;;;;;;;5.60;2.90;;;;;;;25.47;35.55;100432.95;103977;1264;97032;-67
2024/04/07 09:29:51;;;;;;;4.00;2.50;;;;;;;25.26;36.16;100433.52;102943;1267;114296;-67
2024/04/07 09:32:52;;;;;;;4.30;2.20;;;;;;;25.22;36.20;100442.38;102717;1267;107329;-66
2024/04/07 09:35:54;;;;;;;4.20;2.20;;;;;;;25.05;36.18;100436.44;102667;1271;99188;-67
2024/04/07 09:38:56;;;;;;;9.90;2.40;;;;;;;24.94;36.68;100433.45;102762;1266;108372;-67
2024/04/07 09:42:01;;;;;;;5.50;2.30;;;;;;;24.82;36.43;100434.69;102604;1268;99061;-66
2024/04/07 09:45:04;;;;;;;5.10;2.80;;;;;;;25.03;37.13;100435.67;103989;1263;113196;-68
2024/04/07 09:48:09;;;;;;;4.30;2.90;;;;;;;25.56;37.00;100431.95;104022;1263;107157;-69
2024/04/07 09:51:19;;;;;;;3.50;2.30;;;;;;;25.86;35.52;100433.97;103991;1267;139250;-66
2024/04/07 09:54:37;;;;;;;4.80;2.90;;;;;;;25.98;35.64;100424.49;103143;1264;108054;-70
2024/04/07 09:57:38;;;;;;;4.10;2.50;;;;;;;26.15;35.35;100421.80;103293;1264;138384;-69
2024/04/07 10:00:40;;;;;;;3.80;2.80;;;;;;;25.98;34.93;100427.02;102803;1264;113012;-68
2024/04/07 10:03:41;;;;;;;4.60;2.60;;;;;;;25.95;35.23;100416.02;103000;1264;138396;-69
2024/04/07 10:06:42;;;;;;;5.30;2.90;;;;;;;25.97;35.26;100421.42;102745;1264;99208;-68
2024/04/07 10:09:43;;;;;;;4.70;2.50;;;;;;;26.07;35.54;100413.28;102555;1264;138958;-68
2024/04/07 10:12:44;;;;;;;4.90;2.50;;;;;;;26.27;35.47;100405.51;102797;1267;99147;-68
2024/04/07 10:15:46;;;;;;;4.90;2.60;;;;;;;26.53;35.67;100404.24;102373;1264;138256;-64
2024/04/07 10:18:47;;;;;;;4.50;2.10;;;;;;;26.75;34.72;100394.41;103914;1264;107287;-65
2024/04/07 10:21:49;;;;;;;4.00;2.20;;;;;;;26.66;34.51;100397.52;102564;1269;139090;-65
2024/04/07 10:24:51;;;;;;;5.30;2.20;;;;;;;26.70;34.61;100393.54;102804;1264;108153;-66
2024/04/07 10:27:52;;;;;;;5.00;2.10;;;;;;;26.67;34.14;100399.84;102979;1267;138471;-65
2024/04/07 10:31:04;;;;;;;2.80;1.60;;;;;;;26.53;34.21;100390.42;102782;1264;113004;-65
2024/04/07 10:34:05;;;;;;;3.00;1.80;;;;;;;26.34;34.91;100384.69;102580;1264;138184;-66
2024/04/07 10:37:07;;;;;;;4.20;2.20;;;;;;;26.32;35.07;100375.39;102770;1267;99210;-67
2024/04/07 10:40:11;;;;;;;5.60;1.80;;;;;;;26.25;34.93;100376.64;102614;1267;138861;-66
2024/04/07 10:43:12;;;;;;;4.80;2.40;;;;;;;26.16;35.24;100376.64;102864;1267;99213;-68
2024/04/07 10:46:13;;;;;;;4.90;2.40;;;;;;;25.90;35.51;100380.70;103277;1267;138031;-65
2024/04/07 10:49:14;;;;;;;4.40;2.20;;;;;;;25.74;36.13;100359.02;102592;1264;108098;-67
2024/04/07 10:52:23;;;;;;;4.20;2.40;;;;;;;25.72;35.90;100359.92;102479;1264;138336;-68
2024/04/07 10:55:21;;;;;;;;;;;;;;;25.58;35.86;100359.66;102596;1264;108418;-68
2024/04/07 10:58:22;;;;;;;4.20;2.00;;;;;;;25.48;36.31;100366.05;102424;1267;125287;-66
2024/04/07 11:01:23;;;;;;;4.70;2.60;;;;;;;25.37;36.08;100358.41;102544;1264;113433;-66
2024/04/07 11:04:24;;;;;;;4.90;1.80;;;;;;;25.09;36.42;100349.95;102652;1264;138503;-65
2024/04/07 11:07:25;;;;;;;4.60;2.20;;;;;;;24.97;36.68;100351.34;102551;1264;99147;-68
2024/04/07 11:10:27;;;;;;;5.00;1.60;;;;;;;24.93;36.86;100350.44;102439;1264;138012;-66
2024/04/07 11:13:30;;;;;;;2.70;1.90;;;;;;;24.82;36.65;100357.15;102610;1264;99266;-64
2024/04/07 11:16:31;;;;;;;3.40;1.50;;;;;;;24.64;35.91;100366.60;102539;1264;138153;-68
2024/04/07 11:19:33;;;;;;;3.40;1.70;;;;;;;24.47;36.73;100354.46;102563;1267;106958;-68
2024/04/07 11:22:36;;;;;;;4.60;1.70;;;;;;;24.48;37.03;100367.70;102501;1264;138914;-70
2024/04/07 11:25:37;;;;;;;2.80;1.60;;;;;;;24.38;36.96;100365.31;102469;1264;107621;-69
2024/04/07 11:28:38;;;;;;;2.90;1.40;;;;;;;24.24;36.79;100388.79;102392;1266;138764;-68
2024/04/07 11:31:39;;;;;;;4.30;1.80;;;;;;;24.13;36.76;100384.23;104006;1264;112183;-69
2024/04/07 11:34:51;;;;;;;4.70;1.80;;;;;;;24.06;37.05;100380.52;103422;1265;138319;-71
2024/04/07 11:37:52;;;;;;;3.30;1.80;;;;;;;24.11;37.20;100382.22;102930;1264;99193;-67
2024/04/07 11:40:53;;;;;;;3.10;1.60;;;;;;;24.15;37.20;100364.14;102440;1264;138410;-67
2024/04/07 11:43:56;;;;;;;4.00;1.80;;;;;;;24.15;36.86;100361.84;102504;1267;99069;-71
2024/04/07 11:46:57;;;;;;;3.70;1.50;;;;;;;24.10;36.66;100361.77;103784;1264;138043;-70
2024/04/07 11:49:58;;;;;;;3.00;1.40;;;;;;;24.02;36.77;100353.92;102762;1264;108175;-69
2024/04/07 11:52:59;;;;;;;3.40;1.60;;;;;;;23.97;36.69;100352.41;102503;1264;138420;-69
2024/04/07 11:56:00;;;;;;;3.60;1.70;;;;;;;23.99;36.67;100359.27;102703;1263;109264;-69
2024/04/07 11:59:01;;;;;;;2.40;1.40;;;;;;;24.05;36.79;100348.11;102512;1263;138281;-69
2024/04/07 12:02:02;;;;;;;4.30;1.70;;;;;;;24.06;36.36;100362.94;102628;1267;113158;-69
2024/04/07 12:05:03;;;;;;;3.00;1.60;;;;;;;24.04;36.53;100351.23;102514;1270;138205;-69
2024/04/07 12:08:04;;;;;;;5.40;1.60;;;;;;;24.02;36.97;100348.92;102553;1264;99656;-69
2024/04/07 12:11:05;;;;;;;3.80;1.70;;;;;;;23.99;36.96;100340.48;102543;1267;138134;-74
2024/04/07 12:14:08;;;;;;;2.80;1.50;;;;;;;23.99;37.38;100330.86;102595;1266;99202;-76
2024/04/07 12:17:09;;;;;;;5.30;2.30;;;;;;;24.00;37.56;100329.40;102590;1270;138355;-66
2024/04/07 12:20:10;;;;;;;4.20;1.80;;;;;;;23.99;37.86;100335.34;102541;1267;107820;-70
2024/04/07 12:23:11;;;;;;;3.20;1.50;;;;;;;23.85;37.30;100339.57;102641;1267;138390;-65
2024/04/07 12:26:12;;;;;;;3.30;1.70;;;;;;;23.80;37.66;100339.09;102337;1264;107718;-77
2024/04/07 12:29:13;;;;;;;5.10;1.60;;;;;;;23.72;37.76;100321.17;102352;1270;138292;-71
2024/04/07 12:32:14;;;;;;;2.90;1.80;;;;;;;23.69;38.12;100321.63;102539;1267;112651;-72
2024/04/07 12:35:15;;;;;;;4.00;1.60;;;;;;;23.74;38.17;100313.02;102349;1267;138239;-72
2024/04/07 12:38:16;;;;;;;4.80;1.60;;;;;;;23.83;37.87;100312.41;102501;1264;99183;-74
2024/04/07 12:41:17;;;;;;;3.20;1.60;;;;;;;23.83;37.08;100328.73;102356;1267;139318;-71
2024/04/07 12:44:18;;;;;;;3.60;1.40;;;;;;;23.77;37.39;100317.16;102469;1267;99093;-72
2024/04/07 12:47:22;;;;;;;2.60;1.50;;;;;;;23.80;37.51;100311.61;102321;1269;138420;-71
2024/04/07 12:50:23;;;;;;;3.30;1.50;;;;;;;23.84;37.42;100324.52;102400;1267;107304;-71
2024/04/07 12:53:24;;;;;;;4.20;1.60;;;;;;;23.82;37.42;100314.98;102451;1269;138759;-72
2024/04/07 12:56:25;;;;;;;4.00;1.70;;;;;;;23.81;37.26;100317.00;102568;1269;107948;-73
2024/04/07 12:59:26;;;;;;;3.50;1.60;;;;;;;23.74;37.75;100308.96;102496;1267;138369;-71
2024/04/07 13:02:27;;;;;;;2.80;1.40;;;;;;;23.74;37.90;100305.76;102520;1267;112536;-73
2024/04/07 13:05:28;;;;;;;3.10;1.60;;;;;;;23.68;37.55;100304.60;102409;1264;138399;-74
2024/04/07 13:08:29;;;;;;;3.40;1.50;;;;;;;23.66;37.96;100292.25;102946;1264;99545;-72
2024/04/07 13:11:30;;;;;;;3.00;1.90;;;;;;;23.71;38.17;100300.52;102737;1266;110012;-70
2024/04/07 13:14:31;;;;;;;3.30;1.90;;;;;;;23.69;38.01;100294.40;103223;1263;99201;-75
2024/04/07 13:17:33;;;;;;;4.80;1.80;;;;;;;23.73;38.20;100291.66;102640;1267;113139;-75
2024/04/07 13:20:35;;;;;;;5.60;1.80;;;;;;;23.73;38.43;100286.45;102957;1264;107251;-76
2024/04/07 13:23:36;;;;;;;4.60;1.70;;;;;;;23.77;38.45;100274.95;103088;1264;99478;-78
2024/04/07 13:26:37;;;;;;;6.20;1.80;;;;;;;23.82;38.64;100272.17;102837;1263;108544;-77
2024/04/07 13:29:38;;;;;;;2.10;1.50;;;;;;;23.89;38.23;100262.74;103222;1264;98935;-74
2024/04/07 13:32:39;;;;;;;5.10;1.60;;;;;;;23.94;38.09;100260.32;103926;1263;113623;-73
2024/04/07 13:35:40;;;;;;;5.70;1.90;;;;;;;23.97;38.08;100255.59;102753;1264;108363;-75
2024/04/07 13:38:41;;;;;;;3.30;1.70;;;;;;;24.06;38.12;100248.41;103271;1264;99180;-77
2024/04/07 13:41:42;;;;;;;4.70;1.60;;;;;;;24.08;38.02;100255.67;102987;1264;108768;-76